createdAt,value
2023-04-04T00:00:27.018Z,2.60
2023-04-04T00:02:54.004Z,2.60
2023-04-04T00:05:21.065Z,2.50
2023-04-04T00:07:48.664Z,2.40
2023-04-04T00:10:16.164Z,2.30
2023-04-04T00:12:44.180Z,2.20
2023-04-04T00:15:11.932Z,2.30
2023-04-04T00:17:38.972Z,2.40
2023-04-04T00:20:06.622Z,2.50
2023-04-04T00:22:33.458Z,2.50
2023-04-04T00:25:00.362Z,2.50
2023-04-04T00:27:27.274Z,2.30
2023-04-04T00:29:54.293Z,2.30
2023-04-04T00:32:21.222Z,2.30
2023-04-04T00:34:57.371Z,2.20
2023-04-04T00:37:24.385Z,2.20
2023-04-04T00:39:51.329Z,2.10
2023-04-04T00:42:18.783Z,2.10
2023-04-04T00:44:45.973Z,2.00
2023-04-04T00:47:12.957Z,1.90
2023-04-04T00:49:39.801Z,1.90
2023-04-04T00:52:07.910Z,1.90
2023-04-04T00:54:35.886Z,1.90
2023-04-04T00:57:05.428Z,1.90
2023-04-04T00:59:32.974Z,1.90
2023-04-04T01:02:00.815Z,1.80
2023-04-04T01:04:31.813Z,1.80
2023-04-04T01:06:59.247Z,1.70
2023-04-04T01:09:26.704Z,1.70
2023-04-04T01:11:55.168Z,1.60
2023-04-04T01:14:22.575Z,1.60
2023-04-04T01:16:51.713Z,1.60
2023-04-04T01:19:26.613Z,1.60
2023-04-04T01:21:55.522Z,1.60
2023-04-04T01:24:24.497Z,1.50
2023-04-04T01:26:51.672Z,1.50
2023-04-04T01:29:18.569Z,1.60
2023-04-04T01:31:51.243Z,1.50
2023-04-04T01:34:38.815Z,1.50
2023-04-04T01:37:08.112Z,1.50
2023-04-04T01:39:49.569Z,1.50
2023-04-04T01:42:17.184Z,1.40
2023-04-04T01:44:44.652Z,1.40
2023-04-04T01:47:13.329Z,1.40
2023-04-04T01:49:40.873Z,1.30
2023-04-04T01:52:07.781Z,1.30
2023-04-04T01:54:36.169Z,1.20
2023-04-04T01:57:03.171Z,1.10
2023-04-04T01:59:30.087Z,1.10
2023-04-04T02:01:57.817Z,0.90
2023-04-04T02:04:24.928Z,0.90
2023-04-04T02:06:52.827Z,0.80
2023-04-04T02:09:19.651Z,0.80
2023-04-04T02:11:46.574Z,0.80
2023-04-04T02:14:13.393Z,0.70
2023-04-04T02:16:40.338Z,0.60
2023-04-04T02:19:07.168Z,0.50
2023-04-04T02:21:33.969Z,0.50
2023-04-04T02:24:00.857Z,0.50
2023-04-04T02:26:27.725Z,0.60
2023-04-04T02:28:54.587Z,0.70
2023-04-04T02:31:21.969Z,0.90
2023-04-04T02:33:48.888Z,0.90
2023-04-04T02:36:16.178Z,0.80
2023-04-04T02:38:43.027Z,0.70
2023-04-04T02:41:09.833Z,0.70
2023-04-04T02:43:36.670Z,0.70
2023-04-04T02:46:14.448Z,0.70
2023-04-04T02:48:45.808Z,0.60
2023-04-04T02:51:12.624Z,0.60
2023-04-04T02:53:39.467Z,0.60
2023-04-04T02:56:06.750Z,0.60
2023-04-04T02:58:33.630Z,0.60
2023-04-04T03:01:01.022Z,0.60
2023-04-04T03:03:28.128Z,0.70
2023-04-04T03:05:55.308Z,0.70
2023-04-04T03:08:22.791Z,0.60
2023-04-04T03:10:49.705Z,0.70
2023-04-04T03:13:16.534Z,0.70
2023-04-04T03:15:44.053Z,0.60
2023-04-04T03:18:14.481Z,0.70
2023-04-04T03:20:41.607Z,0.70
2023-04-04T03:23:08.625Z,0.60
2023-04-04T03:25:35.775Z,0.70
2023-04-04T03:28:10.400Z,0.70
2023-04-04T03:30:37.425Z,0.60
2023-04-04T03:33:08.748Z,0.70
2023-04-04T03:35:42.313Z,0.60
2023-04-04T03:38:10.060Z,0.60
2023-04-04T03:40:37.072Z,0.60
2023-04-04T03:43:06.744Z,0.60
2023-04-04T03:45:36.598Z,0.60
2023-04-04T03:48:03.537Z,0.60
2023-04-04T03:50:30.772Z,0.60
2023-04-04T03:52:58.652Z,0.60
2023-04-04T03:55:26.478Z,0.60
2023-04-04T03:57:53.598Z,0.60
2023-04-04T04:00:20.793Z,0.40
2023-04-04T04:02:47.696Z,0.40
2023-04-04T04:05:14.813Z,0.40
2023-04-04T04:07:44.766Z,0.40
2023-04-04T04:10:14.338Z,0.30
2023-04-04T04:12:41.831Z,0.30
2023-04-04T04:15:09.041Z,0.30
2023-04-04T04:17:42.346Z,0.20
2023-04-04T04:20:10.308Z,0.20
2023-04-04T04:22:38.172Z,0.20
2023-04-04T04:25:05.708Z,0.30
2023-04-04T04:27:32.584Z,0.20
2023-04-04T04:29:59.400Z,0.10
2023-04-04T04:32:26.851Z,0.10
2023-04-04T04:34:53.955Z,0.10
2023-04-04T04:37:20.802Z,0.10
2023-04-04T04:39:47.636Z,0.20
2023-04-04T04:42:14.507Z,0.20
2023-04-04T04:44:41.681Z,0.20
2023-04-04T04:47:08.591Z,0.20
2023-04-04T04:49:35.597Z,0.20
2023-04-04T04:52:02.637Z,0.20
2023-04-04T04:54:29.580Z,0.20
2023-04-04T04:56:56.419Z,0.20
2023-04-04T04:59:23.338Z,0.10
2023-04-04T05:01:50.808Z,0.10
2023-04-04T05:04:17.869Z,0.00
2023-04-04T05:06:44.718Z,0.00
2023-04-04T05:09:11.621Z,0.00
2023-04-04T05:11:38.647Z,0.00
2023-04-04T05:14:06.422Z,0.00
2023-04-04T05:16:33.605Z,0.00
2023-04-04T05:19:00.469Z,0.00
2023-04-04T05:21:28.172Z,0.00
2023-04-04T05:23:55.259Z,0.10
2023-04-04T05:26:22.092Z,0.10
2023-04-04T05:28:49.077Z,0.10
2023-04-04T05:31:15.900Z,0.10
2023-04-04T05:33:42.742Z,0.20
2023-04-04T05:36:11.524Z,0.30
2023-04-04T05:38:39.335Z,0.30
2023-04-04T05:41:06.186Z,0.40
2023-04-04T05:43:33.042Z,0.40
2023-04-04T05:45:59.940Z,0.60
2023-04-04T05:48:26.778Z,0.90
2023-04-04T05:50:53.598Z,1.20
2023-04-04T05:53:21.066Z,1.80
2023-04-04T05:55:51.754Z,2.80
2023-04-04T05:58:18.725Z,3.80
2023-04-04T06:00:45.560Z,4.60
2023-04-04T06:03:12.937Z,5.30
2023-04-04T06:05:39.978Z,5.80
2023-04-04T06:08:07.030Z,6.50
2023-04-04T06:10:33.820Z,6.90
2023-04-04T06:13:00.615Z,7.30
2023-04-04T06:15:27.455Z,8.00
2023-04-04T06:17:54.350Z,8.00
2023-04-04T06:20:22.752Z,8.00
2023-04-04T06:22:49.905Z,8.60
2023-04-04T06:25:16.868Z,9.30
2023-04-04T06:27:43.841Z,9.60
2023-04-04T06:30:12.077Z,9.10
2023-04-04T06:32:39.098Z,8.70
2023-04-04T06:35:07.121Z,7.80
2023-04-04T06:37:33.952Z,8.00
2023-04-04T06:40:00.799Z,8.40
2023-04-04T06:42:28.300Z,9.30
2023-04-04T06:44:55.105Z,10.20
2023-04-04T06:47:22.791Z,10.40
2023-04-04T06:49:49.791Z,10.20
2023-04-04T06:52:16.693Z,10.50
2023-04-04T06:54:43.656Z,10.60
2023-04-04T06:57:10.719Z,11.30
2023-04-04T06:59:37.838Z,11.10
2023-04-04T07:02:04.752Z,11.70
2023-04-04T07:04:34.897Z,11.10
2023-04-04T07:07:01.886Z,11.20
2023-04-04T07:09:29.718Z,11.70
2023-04-04T07:11:57.030Z,11.20
2023-04-04T07:14:25.902Z,11.40
2023-04-04T07:16:53.568Z,11.10
2023-04-04T07:19:20.658Z,11.10
2023-04-04T07:21:47.486Z,10.70
2023-04-04T07:24:14.298Z,10.60
2023-04-04T07:26:41.494Z,10.70
2023-04-04T07:29:08.577Z,10.70
2023-04-04T07:31:35.688Z,11.10
2023-04-04T07:34:03.717Z,11.50
2023-04-04T07:36:30.728Z,11.60
2023-04-04T07:38:58.133Z,11.70
2023-04-04T07:41:26.019Z,11.60
2023-04-04T07:43:52.980Z,11.60
2023-04-04T07:46:20.629Z,12.00
2023-04-04T07:48:47.537Z,11.80
2023-04-04T07:51:15.556Z,11.90
2023-04-04T07:53:42.559Z,11.50
2023-04-04T07:56:09.421Z,11.60
2023-04-04T07:58:36.810Z,12.00
2023-04-04T08:01:04.018Z,11.70
2023-04-04T08:03:31.188Z,11.70
2023-04-04T08:05:58.135Z,11.20
2023-04-04T08:08:25.064Z,10.90
2023-04-04T08:10:51.974Z,10.90
2023-04-04T08:13:18.816Z,11.20
2023-04-04T08:15:45.954Z,11.30
2023-04-04T08:18:13.098Z,11.20
2023-04-04T08:20:40.089Z,11.10
2023-04-04T08:23:07.104Z,11.20
2023-04-04T08:25:35.189Z,11.30
2023-04-04T08:28:04.546Z,11.20
2023-04-04T08:30:32.172Z,10.70
2023-04-04T08:32:59.088Z,10.50
2023-04-04T08:35:26.180Z,10.30
2023-04-04T08:37:53.209Z,9.60
2023-04-04T08:40:20.159Z,9.40
2023-04-04T08:42:48.419Z,9.70
2023-04-04T08:45:18.778Z,10.00
2023-04-04T08:47:48.707Z,10.20
2023-04-04T08:50:16.273Z,9.90
2023-04-04T08:52:44.984Z,9.40
2023-04-04T08:55:12.839Z,9.40
2023-04-04T08:57:39.873Z,9.30
2023-04-04T09:00:07.726Z,9.00
2023-04-04T09:02:43.685Z,9.00
2023-04-04T09:05:12.779Z,9.00
2023-04-04T09:07:40.502Z,8.80
2023-04-04T09:10:11.063Z,8.50
2023-04-04T09:12:45.301Z,8.40
2023-04-04T09:15:12.344Z,8.00
2023-04-04T09:17:39.766Z,7.80
2023-04-04T09:20:43.138Z,7.50
2023-04-04T09:23:16.002Z,7.20
2023-04-04T09:28:22.160Z,7.00
2023-04-04T09:30:49.575Z,6.90
2023-04-04T09:33:17.980Z,6.80
2023-04-04T09:35:47.171Z,6.80
2023-04-04T09:38:16.010Z,6.70
2023-04-04T09:40:44.869Z,6.60
2023-04-04T09:43:13.725Z,6.60
2023-04-04T09:45:42.585Z,6.60
2023-04-04T09:48:10.549Z,6.70
2023-04-04T09:50:45.501Z,6.70
2023-04-04T09:53:19.117Z,6.70
2023-04-04T09:55:54.016Z,6.80
2023-04-04T09:58:29.055Z,6.60
2023-04-04T10:01:01.319Z,6.60
2023-04-04T10:03:29.390Z,6.40
2023-04-04T10:06:06.926Z,6.60
2023-04-04T10:08:35.690Z,6.70
2023-04-04T10:13:36.871Z,6.70
2023-04-04T10:16:04.844Z,6.80
2023-04-04T10:18:33.457Z,6.90
2023-04-04T10:21:15.407Z,6.80
2023-04-04T10:23:46.576Z,6.60
2023-04-04T10:26:13.885Z,6.60
2023-04-04T10:28:42.608Z,6.80
2023-04-04T10:31:19.423Z,6.90
2023-04-04T10:34:23.701Z,6.90
2023-04-04T10:36:58.445Z,6.90
2023-04-04T10:39:29.669Z,7.00
2023-04-04T10:41:57.641Z,7.00
2023-04-04T10:44:34.040Z,6.80
2023-04-04T10:47:23.618Z,6.70
2023-04-04T10:49:51.981Z,6.80
2023-04-04T10:52:21.316Z,6.80
2023-04-04T10:54:52.945Z,6.90
2023-04-04T10:57:20.195Z,7.00
2023-04-04T11:00:00.284Z,7.00
2023-04-04T11:02:53.566Z,6.90
2023-04-04T11:05:47.533Z,6.90
2023-04-04T11:08:25.506Z,6.90
2023-04-04T11:10:54.190Z,7.00
2023-04-04T11:13:29.537Z,7.00
2023-04-04T11:16:08.134Z,7.10
2023-04-04T11:18:45.593Z,7.20
2023-04-04T11:21:18.528Z,7.40
2023-04-04T11:23:51.426Z,7.60
2023-04-04T11:26:36.749Z,7.40
2023-04-04T11:29:05.435Z,7.40
2023-04-04T11:31:40.256Z,7.40
2023-04-04T11:34:08.286Z,7.40
2023-04-04T11:36:38.817Z,7.40
2023-04-04T11:39:28.761Z,7.40
2023-04-04T11:42:10.605Z,7.50
2023-04-04T11:45:02.451Z,7.60
2023-04-04T11:47:31.303Z,7.60
2023-04-04T11:50:01.215Z,7.60
2023-04-04T11:52:34.668Z,7.60
2023-04-04T11:55:01.629Z,7.40
2023-04-04T11:57:28.514Z,7.30
2023-04-04T11:59:55.965Z,7.40
2023-04-04T12:02:29.915Z,7.50
2023-04-04T12:04:57.594Z,7.70
2023-04-04T12:10:06.140Z,7.90
2023-04-04T12:12:38.852Z,7.80
2023-04-04T12:15:16.926Z,7.70
2023-04-04T12:17:46.012Z,7.80
2023-04-04T12:20:23.265Z,7.90
2023-04-04T12:22:51.869Z,8.00
2023-04-04T12:25:24.165Z,7.90
2023-04-04T12:27:52.604Z,8.00
2023-04-04T12:30:19.913Z,8.10
2023-04-04T12:32:48.487Z,8.10
2023-04-04T12:35:16.068Z,8.00
2023-04-04T12:38:08.550Z,7.90
2023-04-04T12:40:38.508Z,8.00
2023-04-04T12:43:09.852Z,8.20
2023-04-04T12:45:40.793Z,8.20
2023-04-04T12:48:14.206Z,8.30
2023-04-04T12:50:53.106Z,8.30
2023-04-04T12:53:29.185Z,8.20
2023-04-04T12:56:02.419Z,8.30
2023-04-04T12:58:29.696Z,8.20
2023-04-04T13:01:00.070Z,8.30
2023-04-04T13:03:28.876Z,8.20
2023-04-04T13:05:55.763Z,8.30
2023-04-04T13:08:22.813Z,8.30
2023-04-04T13:10:59.661Z,8.50
2023-04-04T13:13:41.130Z,8.40
2023-04-04T13:16:09.957Z,8.50
2023-04-04T13:18:43.456Z,8.40
2023-04-04T13:21:12.379Z,8.60
2023-04-04T13:23:41.524Z,8.50
2023-04-04T13:26:10.039Z,8.50
2023-04-04T13:28:37.248Z,8.50
2023-04-04T13:31:05.396Z,8.40
2023-04-04T13:33:32.689Z,8.50
2023-04-04T13:36:00.605Z,8.70
2023-04-04T13:38:28.732Z,8.80
2023-04-04T13:40:58.360Z,8.80
2023-04-04T13:43:25.605Z,8.90
2023-04-04T13:45:53.572Z,8.90
2023-04-04T13:48:20.437Z,8.80
2023-04-04T13:50:51.454Z,8.60
2023-04-04T13:53:19.063Z,8.60
2023-04-04T13:58:20.163Z,8.70
2023-04-04T14:00:50.206Z,8.80
2023-04-04T14:03:18.035Z,8.70
2023-04-04T14:05:45.125Z,8.80
2023-04-04T14:08:12.056Z,8.80
2023-04-04T14:10:38.939Z,8.70
2023-04-04T14:13:05.990Z,8.70
2023-04-04T14:15:33.456Z,8.70
2023-04-04T14:18:00.412Z,8.70
2023-04-04T14:20:27.455Z,8.70
2023-04-04T14:22:54.277Z,8.70
2023-04-04T14:25:21.237Z,8.80
2023-04-04T14:27:48.050Z,8.70
2023-04-04T14:30:15.707Z,8.80
2023-04-04T14:32:42.652Z,8.80
2023-04-04T14:35:09.928Z,8.80
2023-04-04T14:37:37.377Z,9.00
2023-04-04T14:40:05.730Z,9.00
2023-04-04T14:42:32.775Z,9.00
2023-04-04T14:45:02.477Z,9.20
2023-04-04T14:47:29.366Z,9.30
2023-04-04T14:49:56.443Z,9.30
2023-04-04T14:52:23.277Z,9.20
2023-04-04T14:54:50.090Z,9.10
2023-04-04T14:57:17.824Z,9.00
2023-04-04T14:59:44.696Z,8.90
2023-04-04T15:02:11.580Z,8.90
2023-04-04T15:04:38.640Z,8.90
2023-04-04T15:07:05.591Z,8.80
2023-04-04T15:09:32.440Z,8.90
2023-04-04T15:11:59.434Z,9.10
2023-04-04T15:14:26.361Z,9.10
2023-04-04T15:16:54.019Z,9.10
2023-04-04T15:19:21.373Z,9.20
2023-04-04T15:21:49.045Z,9.30
2023-04-04T15:24:16.078Z,9.30
2023-04-04T15:26:43.708Z,9.30
2023-04-04T15:29:10.688Z,9.20
2023-04-04T15:31:37.558Z,9.20
2023-04-04T15:34:04.439Z,9.10
2023-04-04T15:36:33.615Z,9.20
2023-04-04T15:39:01.180Z,9.20
2023-04-04T15:41:29.290Z,9.20
2023-04-04T15:43:56.094Z,9.20
2023-04-04T15:46:23.225Z,9.20
2023-04-04T15:48:52.161Z,9.20
2023-04-04T15:51:19.947Z,9.20
2023-04-04T15:53:46.795Z,9.10
2023-04-04T15:56:14.128Z,9.10
2023-04-04T15:58:40.977Z,9.20
2023-04-04T16:01:08.018Z,9.30
2023-04-04T16:03:35.015Z,9.30
2023-04-04T16:06:01.952Z,9.20
2023-04-04T16:08:28.757Z,9.20
2023-04-04T16:11:02.763Z,9.20
2023-04-04T16:13:30.063Z,9.30
2023-04-04T16:15:56.989Z,9.30
2023-04-04T16:18:23.991Z,9.20
2023-04-04T16:20:51.156Z,9.20
2023-04-04T16:23:18.100Z,9.20
2023-04-04T16:25:45.126Z,9.20
2023-04-04T16:28:12.151Z,9.30
2023-04-04T16:30:39.274Z,9.30
2023-04-04T16:33:07.012Z,9.30
2023-04-04T16:35:33.978Z,9.30
2023-04-04T16:38:00.835Z,9.30
2023-04-04T16:40:27.688Z,9.30
2023-04-04T16:42:54.481Z,9.30
2023-04-04T16:45:21.827Z,9.20
2023-04-04T16:47:48.722Z,9.10
2023-04-04T16:50:16.553Z,9.00
2023-04-04T16:52:43.484Z,9.00
2023-04-04T16:55:11.036Z,9.00
2023-04-04T16:57:37.901Z,9.10
2023-04-04T17:00:06.751Z,9.10
2023-04-04T17:02:33.609Z,9.10
2023-04-04T17:05:00.777Z,9.00
2023-04-04T17:10:03.927Z,9.20
2023-04-04T17:12:31.085Z,9.20
2023-04-04T17:14:58.332Z,9.20
2023-04-04T17:17:25.268Z,9.30
2023-04-04T17:19:52.165Z,9.40
2023-04-04T17:22:19.056Z,9.30
2023-04-04T17:24:49.194Z,9.30
2023-04-04T17:27:18.445Z,9.20
2023-04-04T17:29:45.808Z,9.10
2023-04-04T17:32:12.826Z,9.10
2023-04-04T17:34:42.235Z,9.10
2023-04-04T17:37:11.345Z,9.00
2023-04-04T17:39:38.532Z,9.00
2023-04-04T17:42:06.151Z,9.00
2023-04-04T17:44:33.042Z,8.90
2023-04-04T17:47:00.546Z,8.90
2023-04-04T17:49:27.609Z,8.90
2023-04-04T17:51:54.459Z,8.80
2023-04-04T17:54:22.611Z,8.70
2023-04-04T17:56:50.504Z,8.60
2023-04-04T17:59:17.880Z,8.60
2023-04-04T18:01:45.239Z,8.40
2023-04-04T18:04:12.294Z,8.40
2023-04-04T18:06:40.448Z,8.40
2023-04-04T18:09:10.333Z,8.30
2023-04-04T18:11:38.563Z,8.20
2023-04-04T18:14:05.596Z,8.30
2023-04-04T18:16:39.635Z,8.20
2023-04-04T18:19:09.682Z,8.10
2023-04-04T18:21:37.294Z,8.10
2023-04-04T18:24:07.452Z,8.10
2023-04-04T18:26:34.300Z,8.10
2023-04-04T18:29:01.155Z,8.00
2023-04-04T18:31:28.122Z,8.00
2023-04-04T18:33:55.802Z,8.00
2023-04-04T18:36:22.765Z,7.90
2023-04-04T18:38:50.372Z,7.90
2023-04-04T18:41:17.573Z,8.00
2023-04-04T18:43:44.423Z,7.90
2023-04-04T18:46:11.564Z,7.80
2023-04-04T18:48:38.457Z,7.80
2023-04-04T18:51:05.645Z,7.80
2023-04-04T18:53:32.465Z,7.80
2023-04-04T18:55:59.705Z,7.80
2023-04-04T18:58:27.236Z,7.70
2023-04-04T19:00:55.884Z,7.70
2023-04-04T19:03:23.339Z,7.70
2023-04-04T19:05:51.051Z,7.60
2023-04-04T19:08:18.679Z,7.50
2023-04-04T19:10:47.686Z,7.60
2023-04-04T19:13:15.432Z,7.60
2023-04-04T19:15:44.374Z,7.60
2023-04-04T19:18:11.898Z,7.60
2023-04-04T19:20:39.118Z,7.60
2023-04-04T19:23:05.994Z,7.50
2023-04-04T19:25:32.908Z,7.40
2023-04-04T19:27:59.829Z,7.40
2023-04-04T19:30:45.050Z,7.50
2023-04-04T19:33:17.505Z,7.40
2023-04-04T19:35:54.740Z,7.30
2023-04-04T19:38:25.116Z,7.20
2023-04-04T19:41:18.117Z,7.10
2023-04-04T19:43:49.617Z,7.00
2023-04-04T19:46:25.583Z,6.90
2023-04-04T19:48:54.442Z,6.80
2023-04-04T19:51:21.337Z,6.70
2023-04-04T19:53:53.616Z,6.60
2023-04-04T19:56:22.934Z,6.50
2023-04-04T19:58:58.621Z,6.40
2023-04-04T20:01:30.583Z,6.30
2023-04-04T20:04:02.666Z,6.30
2023-04-04T20:06:31.788Z,6.20
2023-04-04T20:09:01.340Z,6.20
2023-04-04T20:11:33.185Z,6.10
2023-04-04T20:14:02.625Z,6.10
2023-04-04T20:16:30.484Z,6.00
2023-04-04T20:19:00.666Z,6.00
2023-04-04T20:21:28.877Z,6.00
2023-04-04T20:23:58.417Z,5.90
2023-04-04T20:26:56.953Z,5.80
2023-04-04T20:29:32.532Z,5.70
2023-04-04T20:32:09.762Z,5.50
2023-04-04T20:34:46.979Z,5.40
2023-04-04T20:37:16.233Z,5.20
2023-04-04T20:39:53.042Z,5.20
2023-04-04T20:42:40.640Z,5.20
2023-04-04T20:45:37.388Z,5.10
2023-04-04T20:48:07.881Z,5.30
2023-04-04T20:50:35.018Z,5.20
2023-04-04T20:53:03.834Z,5.20
2023-04-04T20:55:32.469Z,5.20
2023-04-04T20:58:08.902Z,5.30
2023-04-04T21:00:42.336Z,5.40
2023-04-04T21:03:29.291Z,5.30
2023-04-04T21:06:10.850Z,5.10
2023-04-04T21:08:38.962Z,4.90
2023-04-04T21:11:07.037Z,4.80
2023-04-04T21:13:36.994Z,4.70
2023-04-04T21:16:25.644Z,4.60
2023-04-04T21:19:00.945Z,4.50
2023-04-04T21:21:28.868Z,4.50
2023-04-04T21:23:57.712Z,4.50
2023-04-04T21:26:38.012Z,4.50
2023-04-04T21:29:12.088Z,4.60
2023-04-04T21:31:40.833Z,4.60
2023-04-04T21:34:09.288Z,4.50
2023-04-04T21:36:36.261Z,4.60
2023-04-04T21:39:08.132Z,4.60
2023-04-04T21:41:35.572Z,4.60
2023-04-04T21:44:05.267Z,4.60
2023-04-04T21:46:37.547Z,4.50
2023-04-04T21:49:06.232Z,4.60
2023-04-04T21:51:33.538Z,4.60
2023-04-04T21:54:01.384Z,4.60
2023-04-04T21:56:31.725Z,4.50
2023-04-04T21:59:00.912Z,4.50
2023-04-04T22:01:29.057Z,4.40
2023-04-04T22:03:56.256Z,4.50
2023-04-04T22:06:25.615Z,4.50
2023-04-04T22:08:53.846Z,4.50
2023-04-04T22:11:20.777Z,4.40
2023-04-04T22:13:48.485Z,4.30
2023-04-04T22:16:17.469Z,4.40
2023-04-04T22:18:52.030Z,4.40
2023-04-04T22:21:26.229Z,4.20
2023-04-04T22:23:54.561Z,4.10
2023-04-04T22:26:29.170Z,4.00
2023-04-04T22:28:57.024Z,3.90
2023-04-04T22:31:24.114Z,4.00
2023-04-04T22:33:51.282Z,4.00
2023-04-04T22:36:18.755Z,4.00
2023-04-04T22:38:45.636Z,4.00
2023-04-04T22:41:12.553Z,4.00
2023-04-04T22:43:39.516Z,3.90
2023-04-04T22:46:06.794Z,3.80
2023-04-04T22:48:41.541Z,3.80
2023-04-04T22:51:08.483Z,3.70
2023-04-04T22:53:35.344Z,3.70
2023-04-04T22:56:02.216Z,3.60
2023-04-04T22:58:29.066Z,3.60
2023-04-04T23:00:55.998Z,3.60
2023-04-04T23:03:22.948Z,3.60
2023-04-04T23:05:49.822Z,3.30
2023-04-04T23:08:16.897Z,3.20
2023-04-04T23:10:43.798Z,3.00
2023-04-04T23:13:10.711Z,2.90
2023-04-04T23:15:38.003Z,2.70
2023-04-04T23:18:05.414Z,2.70
2023-04-04T23:20:32.729Z,2.80
2023-04-04T23:22:59.747Z,2.80
2023-04-04T23:25:26.705Z,2.90
2023-04-04T23:27:54.164Z,2.90
2023-04-04T23:30:23.271Z,2.70
2023-04-04T23:32:50.634Z,2.50
2023-04-04T23:35:17.691Z,2.40
2023-04-04T23:37:44.687Z,2.30
2023-04-04T23:40:12.156Z,2.30
2023-04-04T23:42:39.259Z,2.30
2023-04-04T23:45:06.814Z,2.20
2023-04-04T23:47:33.703Z,2.10
2023-04-04T23:50:00.824Z,2.20
2023-04-04T23:52:27.703Z,2.30
2023-04-04T23:54:54.566Z,2.30
2023-04-04T23:57:21.381Z,2.50
2023-04-04T23:59:48.183Z,2.60
